Middletown, California
Current Conditions -  °F | °C
As of 11:53 AM on Saturday 25 Oct 2014 (Local Time) from KSTS Reporting Station
Broken Clouds Broken Clouds  
Wind Chill: 66°   Ceiling: 3000
Heat Index: 66°   Visibility: 7mi
Dew Point: 58°   Wind: 16mph
Humidity: 75%   Direction: 220°SW
Pressure: 30"   Gusts: 25mph
Location:  38.75°N, 122.62°W
Report Text: KSTS 251853Z 22014G22KT 7SM FEW024 BKN030 BKN041 19/14 A3000 RMK AO2 RAB35E51 SLP153 P0001 T01890144
Loading
Personal Weather Stations






























Interactive Weather Map
Tropical Storm Tracking
New forecast layout! Learn more

10-Day Weather Forecast

Advertisements
Track Severe Weather on mobile